sensor_id;sensor_type;location;lat;lon;timestamp;P1;durP1;ratioP1;P2;durP2;ratioP2
76447;SDS011;65284;51.040;13.722;2024-01-27T00:02:22;6.57;;;0.55;;
76447;SDS011;65284;51.040;13.722;2024-01-27T00:04:48;6.95;;;0.55;;
76447;SDS011;65284;51.040;13.722;2024-01-27T00:07:15;4.78;;;0.80;;
76447;SDS011;65284;51.040;13.722;2024-01-27T00:09:42;4.78;;;0.70;;
76447;SDS011;65284;51.040;13.722;2024-01-27T00:12:09;4.82;;;0.55;;
76447;SDS011;65284;51.040;13.722;2024-01-27T00:14:37;7.22;;;0.77;;
76447;SDS011;65284;51.040;13.722;2024-01-27T00:17:04;9.13;;;0.70;;
76447;SDS011;65284;51.040;13.722;2024-01-27T00:19:31;2.47;;;0.60;;
76447;SDS011;65284;51.040;13.722;2024-01-27T00:21:57;7.20;;;1.17;;
76447;SDS011;65284;51.040;13.722;2024-01-27T00:24:25;8.50;;;1.05;;
76447;SDS011;65284;51.040;13.722;2024-01-27T00:26:51;5.30;;;0.80;;
76447;SDS011;65284;51.040;13.722;2024-01-27T00:29:18;7.15;;;0.80;;
76447;SDS011;65284;51.040;13.722;2024-01-27T00:31:44;4.82;;;0.80;;
76447;SDS011;65284;51.040;13.722;2024-01-27T00:34:11;8.35;;;1.00;;
76447;SDS011;65284;51.040;13.722;2024-01-27T00:36:37;4.82;;;0.70;;
76447;SDS011;65284;51.040;13.722;2024-01-27T00:39:04;4.07;;;0.63;;
76447;SDS011;65284;51.040;13.722;2024-01-27T00:41:30;5.82;;;0.90;;
76447;SDS011;65284;51.040;13.722;2024-01-27T00:43:57;5.50;;;0.73;;
76447;SDS011;65284;51.040;13.722;2024-01-27T00:46:23;5.50;;;0.77;;
76447;SDS011;65284;51.040;13.722;2024-01-27T00:48:50;5.50;;;0.77;;
76447;SDS011;65284;51.040;13.722;2024-01-27T00:51:16;4.10;;;0.77;;
76447;SDS011;65284;51.040;13.722;2024-01-27T00:53:43;3.85;;;0.70;;
76447;SDS011;65284;51.040;13.722;2024-01-27T00:56:09;4.47;;;0.60;;
76447;SDS011;65284;51.040;13.722;2024-01-27T00:58:36;5.60;;;0.73;;
76447;SDS011;65284;51.040;13.722;2024-01-27T01:01:02;6.05;;;1.40;;
76447;SDS011;65284;51.040;13.722;2024-01-27T01:03:29;4.72;;;0.90;;
76447;SDS011;65284;51.040;13.722;2024-01-27T01:05:56;7.88;;;0.70;;
76447;SDS011;65284;51.040;13.722;2024-01-27T01:08:23;5.38;;;0.77;;
76447;SDS011;65284;51.040;13.722;2024-01-27T01:10:49;7.60;;;0.98;;
76447;SDS011;65284;51.040;13.722;2024-01-27T01:13:15;3.58;;;0.63;;
76447;SDS011;65284;51.040;13.722;2024-01-27T01:15:42;3.17;;;0.50;;
76447;SDS011;65284;51.040;13.722;2024-01-27T01:18:09;5.50;;;0.85;;
76447;SDS011;65284;51.040;13.722;2024-01-27T01:20:36;5.53;;;0.80;;
76447;SDS011;65284;51.040;13.722;2024-01-27T01:23:02;5.97;;;0.77;;
76447;SDS011;65284;51.040;13.722;2024-01-27T01:25:29;4.35;;;0.70;;
76447;SDS011;65284;51.040;13.722;2024-01-27T01:27:55;5.35;;;0.77;;
76447;SDS011;65284;51.040;13.722;2024-01-27T01:30:22;6.80;;;0.85;;
76447;SDS011;65284;51.040;13.722;2024-01-27T01:32:48;5.63;;;0.75;;
76447;SDS011;65284;51.040;13.722;2024-01-27T01:35:16;2.58;;;0.52;;
76447;SDS011;65284;51.040;13.722;2024-01-27T01:37:43;5.65;;;0.60;;
76447;SDS011;65284;51.040;13.722;2024-01-27T01:40:09;8.40;;;0.93;;
76447;SDS011;65284;51.040;13.722;2024-01-27T01:42:36;9.02;;;1.08;;
76447;SDS011;65284;51.040;13.722;2024-01-27T01:45:02;5.15;;;0.80;;
76447;SDS011;65284;51.040;13.722;2024-01-27T01:47:29;3.78;;;0.52;;
76447;SDS011;65284;51.040;13.722;2024-01-27T01:49:56;6.03;;;0.80;;
76447;SDS011;65284;51.040;13.722;2024-01-27T01:52:22;7.68;;;1.20;;
76447;SDS011;65284;51.040;13.722;2024-01-27T01:54:49;6.55;;;0.88;;
76447;SDS011;65284;51.040;13.722;2024-01-27T01:57:16;5.28;;;0.70;;
76447;SDS011;65284;51.040;13.722;2024-01-27T01:59:43;8.57;;;0.90;;
76447;SDS011;65284;51.040;13.722;2024-01-27T02:02:10;7.95;;;0.80;;
76447;SDS011;65284;51.040;13.722;2024-01-27T02:04:44;5.40;;;0.80;;
76447;SDS011;65284;51.040;13.722;2024-01-27T02:09:40;9.55;;;0.98;;
76447;SDS011;65284;51.040;13.722;2024-01-27T02:12:07;8.43;;;0.70;;
76447;SDS011;65284;51.040;13.722;2024-01-27T02:14:33;6.32;;;0.90;;
76447;SDS011;65284;51.040;13.722;2024-01-27T02:17:00;2.97;;;0.73;;
76447;SDS011;65284;51.040;13.722;2024-01-27T02:19:26;5.32;;;0.73;;
76447;SDS011;65284;51.040;13.722;2024-01-27T02:21:53;6.57;;;0.85;;
76447;SDS011;65284;51.040;13.722;2024-01-27T02:24:19;15.70;;;1.13;;
76447;SDS011;65284;51.040;13.722;2024-01-27T02:26:46;7.15;;;0.80;;
76447;SDS011;65284;51.040;13.722;2024-01-27T02:29:12;7.22;;;0.80;;
76447;SDS011;65284;51.040;13.722;2024-01-27T02:31:39;11.43;;;0.95;;
76447;SDS011;65284;51.040;13.722;2024-01-27T02:34:05;5.57;;;0.93;;
76447;SDS011;65284;51.040;13.722;2024-01-27T02:36:32;7.35;;;0.88;;
76447;SDS011;65284;51.040;13.722;2024-01-27T02:38:58;5.97;;;0.80;;
76447;SDS011;65284;51.040;13.722;2024-01-27T02:41:25;9.07;;;1.17;;
76447;SDS011;65284;51.040;13.722;2024-01-27T02:43:51;8.63;;;0.80;;
76447;SDS011;65284;51.040;13.722;2024-01-27T02:46:18;4.78;;;0.80;;
76447;SDS011;65284;51.040;13.722;2024-01-27T02:48:45;8.20;;;1.08;;
76447;SDS011;65284;51.040;13.722;2024-01-27T02:51:12;7.18;;;0.70;;
76447;SDS011;65284;51.040;13.722;2024-01-27T02:53:39;7.15;;;0.95;;
76447;SDS011;65284;51.040;13.722;2024-01-27T02:56:08;7.68;;;1.30;;
76447;SDS011;65284;51.040;13.722;2024-01-27T02:58:35;9.48;;;0.90;;
76447;SDS011;65284;51.040;13.722;2024-01-27T03:01:01;8.45;;;0.90;;
76447;SDS011;65284;51.040;13.722;2024-01-27T03:03:28;8.70;;;0.90;;
76447;SDS011;65284;51.040;13.722;2024-01-27T03:05:55;8.45;;;0.95;;
76447;SDS011;65284;51.040;13.722;2024-01-27T03:08:22;8.63;;;0.90;;
76447;SDS011;65284;51.040;13.722;2024-01-27T03:10:48;7.85;;;1.00;;
76447;SDS011;65284;51.040;13.722;2024-01-27T03:13:15;6.80;;;0.90;;
76447;SDS011;65284;51.040;13.722;2024-01-27T03:15:41;7.43;;;1.10;;
76447;SDS011;65284;51.040;13.722;2024-01-27T03:18:09;7.22;;;0.88;;
76447;SDS011;65284;51.040;13.722;2024-01-27T03:20:36;7.22;;;0.82;;
76447;SDS011;65284;51.040;13.722;2024-01-27T03:23:02;8.88;;;0.85;;
76447;SDS011;65284;51.040;13.722;2024-01-27T03:25:29;6.85;;;1.15;;
76447;SDS011;65284;51.040;13.722;2024-01-27T03:27:55;4.78;;;0.52;;
76447;SDS011;65284;51.040;13.722;2024-01-27T03:30:22;7.07;;;0.90;;
76447;SDS011;65284;51.040;13.722;2024-01-27T03:32:48;11.32;;;1.20;;
76447;SDS011;65284;51.040;13.722;2024-01-27T03:35:15;9.90;;;1.00;;
76447;SDS011;65284;51.040;13.722;2024-01-27T03:37:41;9.73;;;0.95;;
76447;SDS011;65284;51.040;13.722;2024-01-27T03:40:08;7.32;;;0.90;;
76447;SDS011;65284;51.040;13.722;2024-01-27T03:42:35;8.25;;;0.90;;
76447;SDS011;65284;51.040;13.722;2024-01-27T03:45:01;8.05;;;0.88;;
76447;SDS011;65284;51.040;13.722;2024-01-27T03:47:28;8.27;;;0.80;;
76447;SDS011;65284;51.040;13.722;2024-01-27T03:49:55;6.75;;;1.13;;
76447;SDS011;65284;51.040;13.722;2024-01-27T03:52:21;8.40;;;0.75;;
76447;SDS011;65284;51.040;13.722;2024-01-27T03:54:48;6.65;;;0.93;;
76447;SDS011;65284;51.040;13.722;2024-01-27T03:57:14;8.45;;;0.80;;
76447;SDS011;65284;51.040;13.722;2024-01-27T03:59:41;8.48;;;0.70;;
76447;SDS011;65284;51.040;13.722;2024-01-27T04:02:07;8.00;;;0.85;;
76447;SDS011;65284;51.040;13.722;2024-01-27T04:04:34;7.82;;;0.90;;
76447;SDS011;65284;51.040;13.722;2024-01-27T04:07:00;8.98;;;1.38;;
76447;SDS011;65284;51.040;13.722;2024-01-27T04:09:28;8.27;;;1.00;;
76447;SDS011;65284;51.040;13.722;2024-01-27T04:11:54;6.47;;;0.90;;
76447;SDS011;65284;51.040;13.722;2024-01-27T04:14:21;5.82;;;0.93;;
76447;SDS011;65284;51.040;13.722;2024-01-27T04:16:47;8.02;;;0.82;;
76447;SDS011;65284;51.040;13.722;2024-01-27T04:19:14;9.48;;;0.88;;
76447;SDS011;65284;51.040;13.722;2024-01-27T04:21:41;8.23;;;0.80;;
76447;SDS011;65284;51.040;13.722;2024-01-27T04:24:08;8.75;;;1.23;;
76447;SDS011;65284;51.040;13.722;2024-01-27T04:26:35;8.55;;;0.93;;
76447;SDS011;65284;51.040;13.722;2024-01-27T04:29:02;12.70;;;0.82;;
76447;SDS011;65284;51.040;13.722;2024-01-27T04:31:28;5.30;;;0.80;;
76447;SDS011;65284;51.040;13.722;2024-01-27T04:33:57;9.52;;;0.98;;
76447;SDS011;65284;51.040;13.722;2024-01-27T04:36:25;7.65;;;0.82;;
76447;SDS011;65284;51.040;13.722;2024-01-27T04:38:53;9.35;;;0.90;;
76447;SDS011;65284;51.040;13.722;2024-01-27T04:41:19;7.68;;;1.05;;
76447;SDS011;65284;51.040;13.722;2024-01-27T04:43:46;8.23;;;0.70;;
76447;SDS011;65284;51.040;13.722;2024-01-27T04:46:12;6.03;;;0.80;;
76447;SDS011;65284;51.040;13.722;2024-01-27T04:48:38;8.48;;;0.95;;
76447;SDS011;65284;51.040;13.722;2024-01-27T04:51:05;7.20;;;0.80;;
76447;SDS011;65284;51.040;13.722;2024-01-27T04:53:32;11.07;;;0.70;;
76447;SDS011;65284;51.040;13.722;2024-01-27T04:55:58;12.63;;;0.90;;
76447;SDS011;65284;51.040;13.722;2024-01-27T04:58:25;5.78;;;0.70;;
76447;SDS011;65284;51.040;13.722;2024-01-27T05:00:51;8.43;;;0.85;;
76447;SDS011;65284;51.040;13.722;2024-01-27T05:03:18;6.18;;;0.80;;
76447;SDS011;65284;51.040;13.722;2024-01-27T05:05:45;10.15;;;0.80;;
76447;SDS011;65284;51.040;13.722;2024-01-27T05:08:11;7.35;;;0.73;;
76447;SDS011;65284;51.040;13.722;2024-01-27T05:10:38;10.95;;;1.00;;
76447;SDS011;65284;51.040;13.722;2024-01-27T05:13:04;8.52;;;0.90;;
76447;SDS011;65284;51.040;13.722;2024-01-27T05:15:31;11.70;;;1.33;;
76447;SDS011;65284;51.040;13.722;2024-01-27T05:17:57;9.55;;;1.15;;
76447;SDS011;65284;51.040;13.722;2024-01-27T05:20:24;13.65;;;0.90;;
76447;SDS011;65284;51.040;13.722;2024-01-27T05:22:51;7.45;;;0.70;;
76447;SDS011;65284;51.040;13.722;2024-01-27T05:25:17;6.78;;;0.98;;
76447;SDS011;65284;51.040;13.722;2024-01-27T05:27:44;19.42;;;1.35;;
76447;SDS011;65284;51.040;13.722;2024-01-27T05:30:10;10.13;;;1.02;;
76447;SDS011;65284;51.040;13.722;2024-01-27T05:32:37;9.20;;;0.98;;
76447;SDS011;65284;51.040;13.722;2024-01-27T05:35:04;13.75;;;1.02;;
76447;SDS011;65284;51.040;13.722;2024-01-27T05:37:31;11.32;;;1.27;;
76447;SDS011;65284;51.040;13.722;2024-01-27T05:39:58;8.35;;;0.75;;
76447;SDS011;65284;51.040;13.722;2024-01-27T05:42:24;6.72;;;0.80;;
76447;SDS011;65284;51.040;13.722;2024-01-27T05:44:51;8.40;;;0.70;;
76447;SDS011;65284;51.040;13.722;2024-01-27T05:47:17;10.93;;;1.00;;
76447;SDS011;65284;51.040;13.722;2024-01-27T05:49:44;9.98;;;0.98;;
76447;SDS011;65284;51.040;13.722;2024-01-27T05:52:11;8.70;;;0.93;;
76447;SDS011;65284;51.040;13.722;2024-01-27T05:54:50;9.43;;;0.77;;
76447;SDS011;65284;51.040;13.722;2024-01-27T05:57:18;10.20;;;1.05;;
76447;SDS011;65284;51.040;13.722;2024-01-27T05:59:44;7.65;;;0.90;;
76447;SDS011;65284;51.040;13.722;2024-01-27T06:02:11;7.90;;;0.65;;
76447;SDS011;65284;51.040;13.722;2024-01-27T06:04:37;8.35;;;0.98;;
76447;SDS011;65284;51.040;13.722;2024-01-27T06:07:04;11.02;;;0.93;;
76447;SDS011;65284;51.040;13.722;2024-01-27T06:09:31;9.27;;;0.80;;
76447;SDS011;65284;51.040;13.722;2024-01-27T06:12:00;10.30;;;0.90;;
76447;SDS011;65284;51.040;13.722;2024-01-27T06:14:27;10.50;;;1.10;;
76447;SDS011;65284;51.040;13.722;2024-01-27T06:16:53;9.98;;;0.80;;
76447;SDS011;65284;51.040;13.722;2024-01-27T06:19:20;9.65;;;0.90;;
76447;SDS011;65284;51.040;13.722;2024-01-27T06:21:47;7.50;;;0.85;;
76447;SDS011;65284;51.040;13.722;2024-01-27T06:24:13;8.95;;;1.15;;
76447;SDS011;65284;51.040;13.722;2024-01-27T06:26:40;10.85;;;0.90;;
76447;SDS011;65284;51.040;13.722;2024-01-27T06:29:06;7.97;;;1.25;;
76447;SDS011;65284;51.040;13.722;2024-01-27T06:31:33;7.45;;;0.75;;
76447;SDS011;65284;51.040;13.722;2024-01-27T06:34:00;10.50;;;0.90;;
76447;SDS011;65284;51.040;13.722;2024-01-27T06:36:27;8.32;;;1.13;;
76447;SDS011;65284;51.040;13.722;2024-01-27T06:38:54;9.13;;;0.73;;
76447;SDS011;65284;51.040;13.722;2024-01-27T06:41:20;12.45;;;0.90;;
76447;SDS011;65284;51.040;13.722;2024-01-27T06:43:47;10.27;;;1.20;;
76447;SDS011;65284;51.040;13.722;2024-01-27T06:46:14;9.95;;;1.02;;
76447;SDS011;65284;51.040;13.722;2024-01-27T06:48:40;11.98;;;1.30;;
76447;SDS011;65284;51.040;13.722;2024-01-27T06:51:07;10.95;;;1.10;;
76447;SDS011;65284;51.040;13.722;2024-01-27T06:53:34;9.15;;;1.10;;
76447;SDS011;65284;51.040;13.722;2024-01-27T06:56:00;10.65;;;1.15;;
76447;SDS011;65284;51.040;13.722;2024-01-27T06:58:27;9.23;;;1.20;;
76447;SDS011;65284;51.040;13.722;2024-01-27T07:00:53;10.73;;;0.90;;
76447;SDS011;65284;51.040;13.722;2024-01-27T07:03:20;11.55;;;1.50;;
76447;SDS011;65284;51.040;13.722;2024-01-27T07:05:47;5.85;;;1.00;;
76447;SDS011;65284;51.040;13.722;2024-01-27T07:08:14;11.00;;;1.45;;
76447;SDS011;65284;51.040;13.722;2024-01-27T07:10:40;11.75;;;1.15;;
76447;SDS011;65284;51.040;13.722;2024-01-27T07:13:07;7.22;;;1.13;;
76447;SDS011;65284;51.040;13.722;2024-01-27T07:15:33;11.18;;;1.17;;
76447;SDS011;65284;51.040;13.722;2024-01-27T07:18:00;10.23;;;1.08;;
76447;SDS011;65284;51.040;13.722;2024-01-27T07:20:26;8.57;;;1.10;;
76447;SDS011;65284;51.040;13.722;2024-01-27T07:22:55;11.00;;;1.80;;
76447;SDS011;65284;51.040;13.722;2024-01-27T07:25:21;11.38;;;1.25;;
76447;SDS011;65284;51.040;13.722;2024-01-27T07:27:48;10.20;;;1.27;;
76447;SDS011;65284;51.040;13.722;2024-01-27T07:30:14;9.82;;;1.27;;
76447;SDS011;65284;51.040;13.722;2024-01-27T07:32:42;9.55;;;1.02;;
76447;SDS011;65284;51.040;13.722;2024-01-27T07:35:10;9.68;;;1.25;;
76447;SDS011;65284;51.040;13.722;2024-01-27T07:37:37;11.55;;;1.23;;
76447;SDS011;65284;51.040;13.722;2024-01-27T07:40:03;10.10;;;1.23;;
76447;SDS011;65284;51.040;13.722;2024-01-27T07:42:31;9.70;;;1.17;;
76447;SDS011;65284;51.040;13.722;2024-01-27T07:44:58;12.07;;;1.20;;
76447;SDS011;65284;51.040;13.722;2024-01-27T07:47:25;12.02;;;1.30;;
76447;SDS011;65284;51.040;13.722;2024-01-27T07:49:51;9.40;;;1.17;;
76447;SDS011;65284;51.040;13.722;2024-01-27T07:52:19;11.48;;;1.23;;
76447;SDS011;65284;51.040;13.722;2024-01-27T07:54:45;16.00;;;1.50;;
76447;SDS011;65284;51.040;13.722;2024-01-27T07:57:12;9.30;;;1.10;;
76447;SDS011;65284;51.040;13.722;2024-01-27T07:59:38;10.23;;;1.30;;
76447;SDS011;65284;51.040;13.722;2024-01-27T08:02:05;8.35;;;1.63;;
76447;SDS011;65284;51.040;13.722;2024-01-27T08:04:32;8.82;;;1.38;;
76447;SDS011;65284;51.040;13.722;2024-01-27T08:06:58;8.38;;;1.30;;
76447;SDS011;65284;51.040;13.722;2024-01-27T08:09:25;11.48;;;1.27;;
76447;SDS011;65284;51.040;13.722;2024-01-27T08:11:52;9.20;;;1.25;;
76447;SDS011;65284;51.040;13.722;2024-01-27T08:14:19;10.27;;;1.35;;
76447;SDS011;65284;51.040;13.722;2024-01-27T08:16:46;8.85;;;1.17;;
76447;SDS011;65284;51.040;13.722;2024-01-27T08:19:13;8.75;;;1.25;;
76447;SDS011;65284;51.040;13.722;2024-01-27T08:21:46;12.27;;;1.40;;
76447;SDS011;65284;51.040;13.722;2024-01-27T08:24:13;13.15;;;1.55;;
76447;SDS011;65284;51.040;13.722;2024-01-27T08:26:40;12.57;;;1.55;;
76447;SDS011;65284;51.040;13.722;2024-01-27T08:29:08;15.02;;;1.50;;
76447;SDS011;65284;51.040;13.722;2024-01-27T08:31:35;7.32;;;1.25;;
76447;SDS011;65284;51.040;13.722;2024-01-27T08:34:04;10.10;;;1.35;;
76447;SDS011;65284;51.040;13.722;2024-01-27T08:36:31;13.90;;;1.63;;
76447;SDS011;65284;51.040;13.722;2024-01-27T08:38:58;12.15;;;1.27;;
76447;SDS011;65284;51.040;13.722;2024-01-27T08:41:25;9.38;;;1.33;;
76447;SDS011;65284;51.040;13.722;2024-01-27T08:46:21;15.23;;;1.88;;
76447;SDS011;65284;51.040;13.722;2024-01-27T08:48:48;7.93;;;1.13;;
76447;SDS011;65284;51.040;13.722;2024-01-27T08:51:15;7.00;;;1.17;;
76447;SDS011;65284;51.040;13.722;2024-01-27T08:53:43;11.77;;;1.30;;
76447;SDS011;65284;51.040;13.722;2024-01-27T08:56:15;11.52;;;1.40;;
76447;SDS011;65284;51.040;13.722;2024-01-27T08:58:42;10.05;;;1.25;;
76447;SDS011;65284;51.040;13.722;2024-01-27T09:01:09;12.55;;;1.70;;
76447;SDS011;65284;51.040;13.722;2024-01-27T09:06:06;11.27;;;1.65;;
76447;SDS011;65284;51.040;13.722;2024-01-27T09:08:36;9.77;;;1.40;;
76447;SDS011;65284;51.040;13.722;2024-01-27T09:11:03;11.40;;;1.80;;
76447;SDS011;65284;51.040;13.722;2024-01-27T09:13:30;8.35;;;1.33;;
76447;SDS011;65284;51.040;13.722;2024-01-27T09:15:57;13.80;;;1.52;;
76447;SDS011;65284;51.040;13.722;2024-01-27T09:18:24;10.35;;;1.60;;
76447;SDS011;65284;51.040;13.722;2024-01-27T09:20:53;12.48;;;1.60;;
76447;SDS011;65284;51.040;13.722;2024-01-27T09:23:19;20.50;;;1.98;;
76447;SDS011;65284;51.040;13.722;2024-01-27T09:25:46;6.90;;;1.30;;
76447;SDS011;65284;51.040;13.722;2024-01-27T09:28:12;11.50;;;1.70;;
76447;SDS011;65284;51.040;13.722;2024-01-27T09:30:40;13.85;;;1.65;;
76447;SDS011;65284;51.040;13.722;2024-01-27T09:33:07;11.63;;;1.75;;
76447;SDS011;65284;51.040;13.722;2024-01-27T09:35:34;13.07;;;2.05;;
76447;SDS011;65284;51.040;13.722;2024-01-27T09:38:00;9.73;;;1.58;;
76447;SDS011;65284;51.040;13.722;2024-01-27T09:40:27;13.43;;;1.73;;
76447;SDS011;65284;51.040;13.722;2024-01-27T09:42:53;11.23;;;1.65;;
76447;SDS011;65284;51.040;13.722;2024-01-27T09:45:24;11.15;;;1.60;;
76447;SDS011;65284;51.040;13.722;2024-01-27T09:47:52;11.98;;;1.85;;
76447;SDS011;65284;51.040;13.722;2024-01-27T09:50:22;10.32;;;1.67;;
76447;SDS011;65284;51.040;13.722;2024-01-27T09:52:49;13.18;;;2.03;;
76447;SDS011;65284;51.040;13.722;2024-01-27T09:55:15;17.05;;;1.95;;
76447;SDS011;65284;51.040;13.722;2024-01-27T09:57:42;10.52;;;2.00;;
76447;SDS011;65284;51.040;13.722;2024-01-27T10:00:10;11.27;;;1.70;;
76447;SDS011;65284;51.040;13.722;2024-01-27T10:02:39;13.00;;;1.85;;
76447;SDS011;65284;51.040;13.722;2024-01-27T10:05:08;13.95;;;2.38;;
76447;SDS011;65284;51.040;13.722;2024-01-27T10:07:35;12.52;;;2.05;;
76447;SDS011;65284;51.040;13.722;2024-01-27T10:10:02;10.75;;;2.20;;
76447;SDS011;65284;51.040;13.722;2024-01-27T10:12:30;14.13;;;1.65;;
76447;SDS011;65284;51.040;13.722;2024-01-27T10:14:58;13.85;;;2.10;;
76447;SDS011;65284;51.040;13.722;2024-01-27T10:17:25;14.52;;;2.03;;
76447;SDS011;65284;51.040;13.722;2024-01-27T10:19:59;11.18;;;2.05;;
76447;SDS011;65284;51.040;13.722;2024-01-27T10:22:28;12.23;;;1.75;;
76447;SDS011;65284;51.040;13.722;2024-01-27T10:24:54;13.35;;;1.85;;
76447;SDS011;65284;51.040;13.722;2024-01-27T10:27:22;15.05;;;2.00;;
76447;SDS011;65284;51.040;13.722;2024-01-27T10:29:52;11.18;;;1.75;;
76447;SDS011;65284;51.040;13.722;2024-01-27T10:32:20;14.98;;;2.03;;
76447;SDS011;65284;51.040;13.722;2024-01-27T10:34:50;13.05;;;2.00;;
76447;SDS011;65284;51.040;13.722;2024-01-27T10:37:27;15.10;;;1.90;;
76447;SDS011;65284;51.040;13.722;2024-01-27T10:40:03;14.70;;;1.60;;
76447;SDS011;65284;51.040;13.722;2024-01-27T10:42:34;14.88;;;2.10;;
76447;SDS011;65284;51.040;13.722;2024-01-27T10:45:04;11.30;;;2.38;;
76447;SDS011;65284;51.040;13.722;2024-01-27T10:47:32;13.75;;;2.35;;
76447;SDS011;65284;51.040;13.722;2024-01-27T10:49:59;10.80;;;1.80;;
76447;SDS011;65284;51.040;13.722;2024-01-27T10:52:33;11.55;;;1.80;;
76447;SDS011;65284;51.040;13.722;2024-01-27T10:55:05;18.50;;;2.65;;
76447;SDS011;65284;51.040;13.722;2024-01-27T10:57:35;13.05;;;2.15;;
76447;SDS011;65284;51.040;13.722;2024-01-27T11:00:03;12.90;;;2.45;;
76447;SDS011;65284;51.040;13.722;2024-01-27T11:02:33;13.00;;;2.30;;
76447;SDS011;65284;51.040;13.722;2024-01-27T11:05:03;14.30;;;2.10;;
76447;SDS011;65284;51.040;13.722;2024-01-27T11:07:34;10.40;;;2.13;;
76447;SDS011;65284;51.040;13.722;2024-01-27T11:10:01;14.35;;;2.30;;
76447;SDS011;65284;51.040;13.722;2024-01-27T11:12:28;11.90;;;2.45;;
76447;SDS011;65284;51.040;13.722;2024-01-27T11:14:55;17.45;;;2.60;;
76447;SDS011;65284;51.040;13.722;2024-01-27T11:17:25;13.15;;;2.15;;
76447;SDS011;65284;51.040;13.722;2024-01-27T11:19:55;12.07;;;2.22;;
76447;SDS011;65284;51.040;13.722;2024-01-27T11:22:26;12.25;;;2.20;;
76447;SDS011;65284;51.040;13.722;2024-01-27T11:25:06;15.05;;;2.55;;
76447;SDS011;65284;51.040;13.722;2024-01-27T11:27:41;12.98;;;2.20;;
76447;SDS011;65284;51.040;13.722;2024-01-27T11:30:28;14.95;;;2.33;;
76447;SDS011;65284;51.040;13.722;2024-01-27T11:32:56;13.48;;;2.85;;
76447;SDS011;65284;51.040;13.722;2024-01-27T11:35:24;13.98;;;2.78;;
76447;SDS011;65284;51.040;13.722;2024-01-27T11:37:51;11.38;;;2.42;;
76447;SDS011;65284;51.040;13.722;2024-01-27T11:40:18;17.08;;;2.78;;
76447;SDS011;65284;51.040;13.722;2024-01-27T11:42:57;20.67;;;3.05;;
76447;SDS011;65284;51.040;13.722;2024-01-27T11:45:25;12.50;;;2.42;;
76447;SDS011;65284;51.040;13.722;2024-01-27T11:47:54;18.02;;;2.55;;
76447;SDS011;65284;51.040;13.722;2024-01-27T11:50:22;13.57;;;2.22;;
76447;SDS011;65284;51.040;13.722;2024-01-27T11:52:49;11.80;;;2.15;;
76447;SDS011;65284;51.040;13.722;2024-01-27T11:55:15;11.52;;;2.22;;
76447;SDS011;65284;51.040;13.722;2024-01-27T11:57:42;13.60;;;2.78;;
76447;SDS011;65284;51.040;13.722;2024-01-27T12:00:09;18.20;;;2.78;;
76447;SDS011;65284;51.040;13.722;2024-01-27T12:02:37;11.82;;;2.20;;
76447;SDS011;65284;51.040;13.722;2024-01-27T12:05:05;14.63;;;2.28;;
76447;SDS011;65284;51.040;13.722;2024-01-27T12:07:32;10.95;;;2.10;;
76447;SDS011;65284;51.040;13.722;2024-01-27T12:09:59;12.73;;;2.05;;
76447;SDS011;65284;51.040;13.722;2024-01-27T12:12:26;14.02;;;2.70;;
76447;SDS011;65284;51.040;13.722;2024-01-27T12:14:52;10.43;;;2.10;;
76447;SDS011;65284;51.040;13.722;2024-01-27T12:17:19;10.75;;;1.88;;
76447;SDS011;65284;51.040;13.722;2024-01-27T12:19:46;16.27;;;2.50;;
76447;SDS011;65284;51.040;13.722;2024-01-27T12:22:21;15.43;;;2.13;;
76447;SDS011;65284;51.040;13.722;2024-01-27T12:24:54;9.60;;;1.80;;
76447;SDS011;65284;51.040;13.722;2024-01-27T12:27:22;11.68;;;1.80;;
76447;SDS011;65284;51.040;13.722;2024-01-27T12:29:49;12.63;;;2.05;;
76447;SDS011;65284;51.040;13.722;2024-01-27T12:32:16;13.88;;;2.20;;
76447;SDS011;65284;51.040;13.722;2024-01-27T12:34:44;12.38;;;2.10;;
76447;SDS011;65284;51.040;13.722;2024-01-27T12:37:11;10.82;;;1.75;;
76447;SDS011;65284;51.040;13.722;2024-01-27T12:39:44;11.82;;;1.95;;
76447;SDS011;65284;51.040;13.722;2024-01-27T12:42:11;12.20;;;2.05;;
76447;SDS011;65284;51.040;13.722;2024-01-27T12:44:40;10.48;;;1.98;;
76447;SDS011;65284;51.040;13.722;2024-01-27T12:47:07;10.75;;;1.92;;
76447;SDS011;65284;51.040;13.722;2024-01-27T12:49:34;13.73;;;1.98;;
76447;SDS011;65284;51.040;13.722;2024-01-27T12:52:02;7.50;;;1.75;;
76447;SDS011;65284;51.040;13.722;2024-01-27T12:54:29;12.48;;;2.10;;
76447;SDS011;65284;51.040;13.722;2024-01-27T12:56:56;11.65;;;1.80;;
76447;SDS011;65284;51.040;13.722;2024-01-27T12:59:22;9.50;;;1.90;;
76447;SDS011;65284;51.040;13.722;2024-01-27T13:01:49;11.45;;;1.92;;
76447;SDS011;65284;51.040;13.722;2024-01-27T13:04:16;11.25;;;2.08;;
76447;SDS011;65284;51.040;13.722;2024-01-27T13:06:42;10.13;;;2.15;;
76447;SDS011;65284;51.040;13.722;2024-01-27T13:09:10;12.07;;;2.35;;
76447;SDS011;65284;51.040;13.722;2024-01-27T13:11:40;12.70;;;1.88;;
76447;SDS011;65284;51.040;13.722;2024-01-27T13:14:06;11.23;;;2.10;;
76447;SDS011;65284;51.040;13.722;2024-01-27T13:16:35;9.55;;;2.30;;
76447;SDS011;65284;51.040;13.722;2024-01-27T13:19:01;13.23;;;2.38;;
76447;SDS011;65284;51.040;13.722;2024-01-27T13:21:28;7.85;;;1.70;;
76447;SDS011;65284;51.040;13.722;2024-01-27T13:23:55;10.32;;;1.98;;
76447;SDS011;65284;51.040;13.722;2024-01-27T13:26:22;9.07;;;1.80;;
76447;SDS011;65284;51.040;13.722;2024-01-27T13:28:53;11.40;;;1.98;;
76447;SDS011;65284;51.040;13.722;2024-01-27T13:31:19;10.02;;;2.10;;
76447;SDS011;65284;51.040;13.722;2024-01-27T13:33:45;11.02;;;1.52;;
76447;SDS011;65284;51.040;13.722;2024-01-27T13:36:12;10.88;;;1.77;;
76447;SDS011;65284;51.040;13.722;2024-01-27T13:38:39;8.95;;;2.03;;
76447;SDS011;65284;51.040;13.722;2024-01-27T13:41:05;9.40;;;1.70;;
76447;SDS011;65284;51.040;13.722;2024-01-27T13:43:32;12.60;;;1.92;;
76447;SDS011;65284;51.040;13.722;2024-01-27T13:45:58;10.88;;;1.80;;
76447;SDS011;65284;51.040;13.722;2024-01-27T13:48:25;12.90;;;1.70;;
76447;SDS011;65284;51.040;13.722;2024-01-27T13:50:52;11.38;;;1.73;;
76447;SDS011;65284;51.040;13.722;2024-01-27T13:53:19;9.70;;;2.00;;
76447;SDS011;65284;51.040;13.722;2024-01-27T13:55:47;9.52;;;1.52;;
76447;SDS011;65284;51.040;13.722;2024-01-27T13:58:13;9.10;;;1.80;;
76447;SDS011;65284;51.040;13.722;2024-01-27T14:00:40;9.65;;;1.90;;
76447;SDS011;65284;51.040;13.722;2024-01-27T14:03:06;10.05;;;2.40;;
76447;SDS011;65284;51.040;13.722;2024-01-27T14:05:33;11.02;;;1.80;;
76447;SDS011;65284;51.040;13.722;2024-01-27T14:07:59;10.48;;;1.70;;
76447;SDS011;65284;51.040;13.722;2024-01-27T14:10:26;10.52;;;1.52;;
76447;SDS011;65284;51.040;13.722;2024-01-27T14:12:53;11.02;;;1.80;;
76447;SDS011;65284;51.040;13.722;2024-01-27T14:15:19;8.57;;;1.75;;
76447;SDS011;65284;51.040;13.722;2024-01-27T14:17:47;7.95;;;1.52;;
76447;SDS011;65284;51.040;13.722;2024-01-27T14:20:14;13.60;;;2.22;;
76447;SDS011;65284;51.040;13.722;2024-01-27T14:22:42;10.18;;;1.75;;
76447;SDS011;65284;51.040;13.722;2024-01-27T14:25:08;7.88;;;1.80;;
76447;SDS011;65284;51.040;13.722;2024-01-27T14:27:36;10.45;;;2.05;;
76447;SDS011;65284;51.040;13.722;2024-01-27T14:30:02;14.27;;;1.85;;
76447;SDS011;65284;51.040;13.722;2024-01-27T14:32:29;10.07;;;1.75;;
76447;SDS011;65284;51.040;13.722;2024-01-27T14:34:56;10.05;;;1.58;;
76447;SDS011;65284;51.040;13.722;2024-01-27T14:37:23;9.77;;;2.28;;